Time,TemperatureF,DewpointF,PressureIn,WindDirection,WindDirectionDegrees,WindSpeedMPH,WindSpeedGustMPH,Humidity,HourlyPrecipIn,Conditions,Clouds,dailyrainin,SoftwareType,DateUTC
2013-11-02 00:13:00,42.0,40.0,30.01,NW,311,0.0,0.0,94,0.00,,,0.00,,2013-11-02 05:13:00,
2013-11-02 00:22:00,41.0,40.0,30.01,NW,311,0.0,0.0,95,0.00,,,0.00,,2013-11-02 05:22:00,
2013-11-02 00:42:00,41.0,40.0,30.01,NW,311,0.0,0.0,95,0.00,,,0.00,,2013-11-02 05:42:00,
2013-11-02 00:52:00,41.0,40.0,30.02,NW,311,0.0,0.0,95,0.00,,,0.00,,2013-11-02 05:52:00,
2013-11-02 01:12:00,40.0,39.0,30.03,NW,311,0.0,0.0,95,0.00,,,0.00,,2013-11-02 06:12:00,
2013-11-02 01:22:00,40.0,39.0,30.03,NW,311,0.0,0.0,95,0.00,,,0.00,,2013-11-02 06:22:00,
2013-11-02 01:43:00,40.0,39.0,30.03,NW,311,0.0,0.0,96,0.00,,,0.00,,2013-11-02 06:43:00,
2013-11-02 01:52:00,40.0,39.0,30.03,NW,311,0.0,0.0,96,0.00,,,0.00,,2013-11-02 06:52:00,
2013-11-02 02:12:00,40.0,39.0,30.03,NW,311,0.0,0.0,96,0.00,,,0.00,,2013-11-02 07:12:00,
2013-11-02 02:22:00,40.0,39.0,30.04,NW,311,0.0,0.0,97,0.00,,,0.00,,2013-11-02 07:22:00,
2013-11-02 02:42:00,40.0,39.0,30.05,NW,311,0.0,0.0,96,0.00,,,0.00,,2013-11-02 07:42:00,
2013-11-02 02:52:00,40.0,39.0,30.04,NW,311,0.0,0.0,96,0.00,,,0.00,,2013-11-02 07:52:00,
2013-11-02 03:12:00,40.0,39.0,30.05,NW,311,0.0,0.0,97,0.00,,,0.00,,2013-11-02 08:12:00,
2013-11-02 03:22:00,39.0,38.0,30.06,NW,311,0.0,0.0,96,0.00,,,0.00,,2013-11-02 08:22:00,
2013-11-02 03:42:00,39.0,38.0,30.06,NW,311,0.0,0.0,97,0.00,,,0.00,,2013-11-02 08:42:00,
2013-11-02 03:52:00,39.0,38.0,30.06,NW,311,0.0,0.0,96,0.00,,,0.00,,2013-11-02 08:52:00,
2013-11-02 04:11:00,39.0,38.0,30.06,NW,311,0.0,0.0,96,0.00,,,0.00,,2013-11-02 09:11:00,
2013-11-02 04:21:00,38.0,37.0,30.06,NW,311,0.0,0.0,96,0.00,,,0.00,,2013-11-02 09:21:00,
2013-11-02 04:43:00,38.0,37.0,30.06,NW,311,0.0,0.0,96,0.00,,,0.00,,2013-11-02 09:43:00,
2013-11-02 04:53:00,38.0,37.0,30.07,NW,311,0.0,0.0,97,0.00,,,0.00,,2013-11-02 09:53:00,
2013-11-02 05:13:00,37.0,36.0,30.07,NW,311,0.0,0.0,97,0.00,,,0.00,,2013-11-02 10:13:00,
2013-11-02 05:23:00,37.0,36.0,30.08,NW,311,0.0,0.0,97,0.00,,,0.00,,2013-11-02 10:23:00,
2013-11-02 05:52:00,37.0,36.0,30.09,NW,311,0.0,0.0,97,0.00,,,0.00,,2013-11-02 10:52:00,
2013-11-02 06:12:00,37.0,36.0,30.10,NW,311,0.0,0.0,97,0.00,,,0.00,,2013-11-02 11:12:00,
2013-11-02 06:22:00,37.0,36.0,30.11,NW,311,0.0,0.0,97,0.00,,,0.00,,2013-11-02 11:22:00,
2013-11-02 06:42:00,36.0,35.0,30.11,NW,311,0.0,0.0,97,0.00,,,0.00,,2013-11-02 11:42:00,
2013-11-02 06:52:00,36.0,35.0,30.12,NW,311,0.0,0.0,97,0.00,,,0.00,,2013-11-02 11:52:00,
2013-11-02 07:12:00,36.0,35.0,30.13,NW,311,0.0,0.0,97,0.00,,,0.00,,2013-11-02 12:12:00,
2013-11-02 07:21:00,36.0,35.0,30.14,NW,311,0.0,0.0,97,0.00,,,0.00,,2013-11-02 12:21:00,
2013-11-02 07:42:00,36.0,35.0,30.14,NW,311,0.0,0.0,97,0.00,,,0.00,,2013-11-02 12:42:00,
2013-11-02 07:52:00,36.0,35.0,30.14,NW,311,0.0,0.0,97,0.00,,,0.00,,2013-11-02 12:52:00,
2013-11-02 08:12:00,36.0,35.0,30.15,NW,311,0.0,0.0,97,0.00,,,0.00,,2013-11-02 13:12:00,
2013-11-02 08:22:00,36.0,35.0,30.15,NW,311,0.0,0.0,97,0.00,,,0.00,,2013-11-02 13:22:00,
2013-11-02 08:42:00,36.0,35.0,30.15,NW,311,0.0,0.0,98,0.00,,,0.00,,2013-11-02 13:42:00,
2013-11-02 08:52:00,36.0,35.0,30.16,NW,311,0.0,0.0,98,0.00,,,0.00,,2013-11-02 13:52:00,
2013-11-02 09:11:00,39.0,39.0,30.17,NW,309,0.0,1.0,99,0.00,,,0.00,,2013-11-02 14:11:00,
2013-11-02 09:21:00,40.0,39.0,30.18,WNW,286,0.0,1.0,98,0.00,,,0.00,,2013-11-02 14:21:00,
2013-11-02 09:42:00,42.0,40.0,30.18,West,269,1.0,3.0,94,0.00,,,0.00,,2013-11-02 14:42:00,
2013-11-02 09:52:00,44.0,41.0,30.19,West,276,0.0,7.0,89,0.00,,,0.00,,2013-11-02 14:52:00,
2013-11-02 10:11:00,45.0,41.0,30.20,NW,309,0.0,6.0,86,0.00,,,0.00,,2013-11-02 15:11:00,
2013-11-02 10:22:00,46.0,41.0,30.20,West,281,0.0,4.0,82,0.00,,,0.00,,2013-11-02 15:22:00,
2013-11-02 10:43:00,47.0,41.0,30.20,NNW,328,1.0,7.0,80,0.00,,,0.00,,2013-11-02 15:43:00,
2013-11-02 10:53:00,48.0,42.0,30.20,WNW,290,1.0,8.0,79,0.00,,,0.00,,2013-11-02 15:53:00,
2013-11-02 11:13:00,49.0,41.0,30.20,West,280,2.0,6.0,74,0.00,,,0.00,,2013-11-02 16:13:00,
2013-11-02 11:23:00,50.0,42.0,30.21,WNW,286,2.0,8.0,73,0.00,,,0.00,,2013-11-02 16:23:00,
2013-11-02 11:42:00,51.0,41.0,30.22,West,269,2.0,9.0,69,0.00,,,0.00,,2013-11-02 16:42:00,
2013-11-02 11:54:00,52.0,41.0,30.21,West,275,0.0,7.0,67,0.00,,,0.00,,2013-11-02 16:54:00,
2013-11-02 12:12:00,51.0,41.0,30.22,West,281,2.0,5.0,68,0.00,,,0.00,,2013-11-02 17:12:00,
2013-11-02 12:22:00,52.0,41.0,30.22,West,273,3.0,11.0,66,0.00,,,0.00,,2013-11-02 17:22:00,
2013-11-02 12:43:00,52.0,41.0,30.22,WSW,254,1.0,9.0,67,0.00,,,0.00,,2013-11-02 17:43:00,
2013-11-02 12:53:00,52.0,41.0,30.23,WNW,285,1.0,7.0,66,0.00,,,0.00,,2013-11-02 17:53:00,
2013-11-02 13:12:00,53.0,41.0,30.22,WNW,288,1.0,6.0,64,0.00,,,0.00,,2013-11-02 18:12:00,
2013-11-02 13:22:00,54.0,40.0,30.22,West,273,4.0,9.0,60,0.00,,,0.00,,2013-11-02 18:22:00,
2013-11-02 13:42:00,54.0,41.0,30.22,WNW,289,1.0,7.0,61,0.00,,,0.00,,2013-11-02 18:42:00,
2013-11-02 13:52:00,54.0,40.0,30.21,NW,323,2.0,9.0,60,0.00,,,0.00,,2013-11-02 18:52:00,
2013-11-02 14:11:00,54.0,40.0,30.21,NNW,341,2.0,9.0,58,0.00,,,0.00,,2013-11-02 19:11:00,
2013-11-02 14:22:00,55.0,40.0,30.20,NW,317,2.0,9.0,56,0.00,,,0.00,,2013-11-02 19:22:00,
2013-11-02 14:42:00,55.0,41.0,30.19,WNW,291,0.0,8.0,58,0.00,,,0.00,,2013-11-02 19:42:00,
2013-11-02 14:52:00,55.0,39.0,30.19,NW,304,2.0,8.0,55,0.00,,,0.00,,2013-11-02 19:52:00,
2013-11-02 15:12:00,57.0,41.0,30.19,West,262,1.0,10.0,55,0.00,,,0.00,,2013-11-02 20:12:00,
2013-11-02 15:22:00,57.0,40.0,30.19,West,275,1.0,8.0,52,0.00,,,0.00,,2013-11-02 20:22:00,
2013-11-02 15:43:00,57.0,39.0,30.19,West,271,1.0,7.0,51,0.00,,,0.00,,2013-11-02 20:43:00,
2013-11-02 15:53:00,57.0,40.0,30.19,WNW,289,3.0,7.0,52,0.00,,,0.00,,2013-11-02 20:53:00,
2013-11-02 16:12:00,56.0,38.0,30.19,WNW,284,5.0,10.0,51,0.00,,,0.00,,2013-11-02 21:12:00,
2013-11-02 16:22:00,57.0,40.0,30.19,West,279,2.0,9.0,53,0.00,,,0.00,,2013-11-02 21:22:00,
2013-11-02 16:44:00,56.0,39.0,30.19,West,278,2.0,8.0,52,0.00,,,0.00,,2013-11-02 21:44:00,
2013-11-02 16:54:00,56.0,38.0,30.20,WNW,282,2.0,6.0,51,0.00,,,0.00,,2013-11-02 21:54:00,
2013-11-02 17:13:00,56.0,38.0,30.20,West,263,3.0,7.0,50,0.00,,,0.00,,2013-11-02 22:13:00,
2013-11-02 17:24:00,54.0,39.0,30.20,West,275,0.0,7.0,56,0.00,,,0.00,,2013-11-02 22:24:00,
2013-11-02 17:44:00,54.0,38.0,30.20,West,270,2.0,6.0,54,0.00,,,0.00,,2013-11-02 22:44:00,
2013-11-02 17:54:00,53.0,38.0,30.20,West,271,0.0,2.0,56,0.00,,,0.00,,2013-11-02 22:54:00,
2013-11-02 18:12:00,52.0,39.0,30.20,West,276,0.0,4.0,60,0.00,,,0.00,,2013-11-02 23:12:00,
2013-11-02 18:22:00,52.0,41.0,30.21,West,273,0.0,1.0,65,0.00,,,0.00,,2013-11-02 23:22:00,
2013-11-02 18:42:00,49.0,40.0,30.21,West,273,0.0,0.0,70,0.00,,,0.00,,2013-11-02 23:42:00,
2013-11-02 18:52:00,47.0,39.0,30.20,West,273,0.0,0.0,75,0.00,,,0.00,,2013-11-02 23:52:00,
2013-11-02 19:11:00,45.0,39.0,30.20,West,273,0.0,0.0,79,0.00,,,0.00,,2013-11-03 00:11:00,
2013-11-02 19:22:00,43.0,38.0,30.21,West,273,0.0,0.0,82,0.00,,,0.00,,2013-11-03 00:22:00,
2013-11-02 19:52:00,41.0,37.0,30.22,West,273,0.0,0.0,87,0.00,,,0.00,,2013-11-03 00:52:00,
2013-11-02 20:11:00,40.0,37.0,30.22,West,273,0.0,0.0,88,0.00,,,0.00,,2013-11-03 01:11:00,
2013-11-02 20:22:00,39.0,36.0,30.22,West,273,0.0,0.0,90,0.00,,,0.00,,2013-11-03 01:22:00,
2013-11-02 20:42:00,38.0,36.0,30.23,West,273,0.0,0.0,91,0.00,,,0.00,,2013-11-03 01:42:00,
2013-11-02 20:52:00,38.0,36.0,30.23,West,273,0.0,0.0,91,0.00,,,0.00,,2013-11-03 01:52:00,
2013-11-02 21:11:00,37.0,35.0,30.23,West,273,0.0,0.0,92,0.00,,,0.00,,2013-11-03 02:11:00,
2013-11-02 21:21:00,37.0,35.0,30.23,West,273,0.0,0.0,93,0.00,,,0.00,,2013-11-03 02:21:00,
2013-11-02 21:52:00,36.0,34.0,30.23,West,273,0.0,0.0,93,0.00,,,0.00,,2013-11-03 02:52:00,
2013-11-02 22:11:00,36.0,34.0,30.24,West,273,0.0,0.0,94,0.00,,,0.00,,2013-11-03 03:11:00,
2013-11-02 22:22:00,35.0,33.0,30.24,West,273,0.0,0.0,94,0.00,,,0.00,,2013-11-03 03:22:00,
2013-11-02 22:44:00,35.0,33.0,30.24,West,273,0.0,0.0,94,0.00,,,0.00,,2013-11-03 03:44:00,
2013-11-02 22:54:00,34.0,33.0,30.24,West,273,0.0,0.0,95,0.00,,,0.00,,2013-11-03 03:54:00,
2013-11-02 23:02:00,-999.0,-99.9,30.24,West,273,0.0,0.0,-999,-99.99,,,-99.99,,2013-11-03 04:02:00,
2013-11-02 23:13:00,34.0,32.0,30.24,West,273,0.0,0.0,94,0.00,,,0.00,,2013-11-03 04:13:00,
2013-11-02 23:23:00,34.0,33.0,30.23,West,273,0.0,0.0,95,0.00,,,0.00,,2013-11-03 04:23:00,
2013-11-02 23:44:00,34.0,33.0,30.24,West,273,0.0,0.0,95,0.00,,,0.00,,2013-11-03 04:44:00,
2013-11-02 23:52:00,33.0,32.0,30.24,West,273,0.0,0.0,95,0.00,,,0.00,,2013-11-03 04:52:00,